EmailTwitter


Observations de surface / Québec / LFBT

Régions: Québec | Canada | États-Unis | Europe | France | UK | Ailleurs
Station
Affichage
Infos & localisation pour LFBT | Aide pour décoder les METARs

Observations prises le 2017-09-21 à 10H30 UTC à TARBES/OSSUN, FR (LFBT)

Température: 22.0 Celsius

Point de rosée: 10.0 Celsius

Humidité relative: 46%

Vents: Nord-ouest à 7 km/h ou 4 noeuds.

Pression au niveau moyen de la mer: 101.80 kilopascals.

Observation METAR:

LFBT 211030Z AUTO 32004KT 280V360 CAVOK 22/10 Q1018 NOSIG=